Time;durP1;ratioP1;P1;durP2;ratioP2;P2;SDS_P1;SDS_P2;PMS_P1;PMS_P2;Temp;Humidity;BMP_temperature;BMP_pressure;BME280_temperature;BME280_humidity;BME280_pressure;Samples;Min_cycle;Max_cycle;Signal;HPM_P1;HPM_P2
2021/11/04 00:01:09;;;;;;;5.27;2.13;;;5.60;99.90;;;;;;5019209;28;20426;-65
2021/11/04 00:03:35;;;;;;;3.27;2.97;;;5.60;99.90;;;;;;5024428;28;20778;-65
2021/11/04 00:06:01;;;;;;;2.37;1.97;;;5.60;99.90;;;;;;5029206;28;20199;-64
2021/11/04 00:08:26;;;;;;;2.70;2.40;;;5.60;99.90;;;;;;5028719;28;20199;-64
2021/11/04 00:10:53;;;;;;;2.03;1.93;;;5.60;99.90;;;;;;5026692;28;20261;-64
2021/11/04 00:13:19;;;;;;;2.63;2.03;;;5.60;99.90;;;;;;5019041;28;20168;-64
2021/11/04 00:15:45;;;;;;;2.03;1.93;;;5.60;99.90;;;;;;5041929;28;20445;-64
2021/11/04 00:18:11;;;;;;;2.43;1.90;;;5.60;99.90;;;;;;5041365;28;20520;-64
2021/11/04 00:20:37;;;;;;;2.80;2.10;;;5.60;99.90;;;;;;5027979;28;20414;-64
2021/11/04 00:23:04;;;;;;;3.00;1.60;;;5.60;99.90;;;;;;5017593;28;20187;-65
2021/11/04 00:25:30;;;;;;;2.53;2.20;;;5.60;99.90;;;;;;5028486;28;20427;-65
2021/11/04 00:27:56;;;;;;;2.27;2.00;;;5.60;99.90;;;;;;5025949;28;20984;-64
2021/11/04 00:30:21;;;;;;;2.20;2.10;;;5.60;99.90;;;;;;5012828;28;20488;-64
2021/11/04 00:32:54;;;;;;;2.60;1.83;;;5.60;99.90;;;;;;5011162;28;20176;-64
2021/11/04 00:35:21;;;;;;;2.60;1.60;;;5.60;99.90;;;;;;5023574;28;20164;-65
2021/11/04 00:37:48;;;;;;;2.07;1.87;;;5.60;99.90;;;;;;5024687;28;20477;-64
2021/11/04 00:40:17;;;;;;;2.80;1.80;;;5.60;99.90;;;;;;5012047;28;20847;-64
2021/11/04 00:42:43;;;;;;;1.77;1.67;;;5.70;99.90;;;;;;5018603;28;20427;-64
2021/11/04 00:45:10;;;;;;;1.57;1.47;;;5.60;99.90;;;;;;5019624;28;20426;-64
2021/11/04 00:47:36;;;;;;;2.20;1.83;;;5.60;99.90;;;;;;5026871;28;20206;-64
2021/11/04 00:50:03;;;;;;;2.33;1.70;;;5.60;99.90;;;;;;5026427;28;20421;-64
2021/11/04 00:52:28;;;;;;;1.50;1.40;;;5.60;99.90;;;;;;5013339;28;20406;-64
2021/11/04 00:54:54;;;;;;;1.67;1.57;;;5.60;99.90;;;;;;5022185;28;20505;-64
2021/11/04 00:57:20;;;;;;;1.70;1.60;;;5.60;99.90;;;;;;5021315;28;20212;-65
2021/11/04 00:59:45;;;;;;;1.73;1.63;;;5.60;99.90;;;;;;5013552;28;20627;-65
2021/11/04 01:02:11;;;;;;;1.67;1.50;;;5.60;99.90;;;;;;5026124;28;20176;-64
2021/11/04 01:04:37;;;;;;;3.90;1.70;;;5.60;99.90;;;;;;5027132;28;20647;-64
2021/11/04 01:07:03;;;;;;;1.70;1.60;;;5.60;99.90;;;;;;5030034;28;20759;-65
2021/11/04 01:09:28;;;;;;;1.57;1.47;;;5.60;99.90;;;;;;5029221;28;20187;-64
2021/11/04 01:11:54;;;;;;;2.37;1.73;;;5.60;99.90;;;;;;5026962;28;20408;-64
2021/11/04 01:14:20;;;;;;;1.50;1.40;;;5.60;99.90;;;;;;5028330;28;20584;-64
2021/11/04 01:16:46;;;;;;;1.80;1.70;;;5.60;99.90;;;;;;5024342;28;20191;-64
2021/11/04 01:19:12;;;;;;;2.60;1.57;;;5.50;99.90;;;;;;5025877;28;20176;-65
2021/11/04 01:21:40;;;;;;;3.10;1.70;;;5.50;99.90;;;;;;5032793;28;20434;-64
2021/11/04 01:24:06;;;;;;;2.00;1.80;;;5.50;99.90;;;;;;5023399;28;20522;-64
2021/11/04 01:26:33;;;;;;;1.07;1.07;;;5.50;99.90;;;;;;5027006;28;20528;-64
2021/11/04 01:28:59;;;;;;;1.50;1.40;;;5.50;99.90;;;;;;5017228;28;20611;-64
2021/11/04 01:31:24;;;;;;;1.50;1.40;;;5.50;99.90;;;;;;5032314;28;20437;-64
2021/11/04 01:33:50;;;;;;;5.83;2.27;;;5.50;99.90;;;;;;5031034;28;20219;-64
2021/11/04 01:36:16;;;;;;;1.20;1.20;;;5.40;99.90;;;;;;5023709;28;20193;-65
2021/11/04 01:38:41;;;;;;;1.57;1.47;;;5.40;99.90;;;;;;5025588;28;20218;-64
2021/11/04 01:41:07;;;;;;;1.40;1.30;;;5.40;99.90;;;;;;5018459;28;20647;-64
2021/11/04 01:43:33;;;;;;;3.17;1.27;;;5.40;99.90;;;;;;5019112;28;20207;-65
2021/11/04 01:45:59;;;;;;;1.23;1.23;;;5.30;99.90;;;;;;5030467;28;21061;-64
2021/11/04 01:48:25;;;;;;;1.37;1.30;;;5.30;99.90;;;;;;5017973;28;20200;-64
2021/11/04 01:50:50;;;;;;;1.30;1.20;;;5.30;99.90;;;;;;5026093;28;20163;-63
2021/11/04 01:53:21;;;;;;;1.53;1.43;;;5.20;99.90;;;;;;5027368;28;20263;-64
2021/11/04 01:55:47;;;;;;;1.50;1.40;;;5.20;99.90;;;;;;5032779;28;20172;-64
2021/11/04 01:58:13;;;;;;;1.10;1.10;;;5.20;99.90;;;;;;5015223;28;20451;-65
2021/11/04 02:00:39;;;;;;;1.60;1.50;;;5.20;99.90;;;;;;5031041;28;20492;-65
2021/11/04 02:03:13;;;;;;;1.20;1.20;;;5.20;99.90;;;;;;5030994;28;20168;-64
2021/11/04 02:06:09;;;;;;;1.60;1.50;;;5.10;99.90;;;;;;5024975;28;20186;-64
2021/11/04 02:08:52;;;;;;;1.37;1.37;;;5.10;99.90;;;;;;5015081;28;20457;-65
2021/11/04 02:11:22;;;;;;;1.77;1.67;;;5.00;99.90;;;;;;5027077;28;20434;-64
2021/11/04 02:14:24;;;;;;;1.50;1.40;;;5.00;99.90;;;;;;5021404;28;20514;-64
2021/11/04 02:16:52;;;;;;;1.70;1.60;;;5.00;99.90;;;;;;4989778;28;20444;-64
2021/11/04 02:19:36;;;;;;;1.70;1.60;;;4.90;99.90;;;;;;5020539;28;20521;-64
2021/11/04 02:22:04;;;;;;;1.77;1.67;;;4.90;99.90;;;;;;5025945;28;20429;-64
2021/11/04 02:24:40;;;;;;;1.63;1.53;;;4.90;99.90;;;;;;5026847;28;20868;-64
2021/11/04 02:27:09;;;;;;;1.43;1.33;;;4.90;99.90;;;;;;5014795;28;20612;-64
2021/11/04 02:29:38;;;;;;;1.30;1.30;;;4.90;99.90;;;;;;5026861;28;20431;-64
2021/11/04 02:32:05;;;;;;;1.10;1.10;;;4.90;99.90;;;;;;5025194;28;20425;-64
2021/11/04 02:34:32;;;;;;;1.10;1.10;;;5.00;99.90;;;;;;5030964;28;20431;-64
2021/11/04 02:36:59;;;;;;;1.20;1.20;;;5.00;99.90;;;;;;5022892;28;20454;-64
2021/11/04 02:39:29;;;;;;;1.20;1.20;;;5.00;99.90;;;;;;5027133;28;21086;-64
2021/11/04 02:41:55;;;;;;;1.10;1.10;;;5.00;99.90;;;;;;5025303;28;20423;-65
2021/11/04 02:44:22;;;;;;;1.77;1.67;;;5.00;99.90;;;;;;5026758;28;20442;-64
2021/11/04 02:46:47;;;;;;;1.17;1.17;;;5.00;99.90;;;;;;5029066;28;20307;-64
2021/11/04 02:49:13;;;;;;;1.10;1.10;;;5.00;99.90;;;;;;5021423;28;20989;-65
2021/11/04 02:51:39;;;;;;;1.17;1.10;;;5.00;99.90;;;;;;5027095;28;20788;-64
2021/11/04 02:54:08;;;;;;;2.90;1.30;;;5.00;99.90;;;;;;5021356;28;20422;-65
2021/11/04 02:57:00;;;;;;;1.17;1.10;;;5.00;99.90;;;;;;5023775;28;20199;-65
2021/11/04 02:59:27;;;;;;;1.53;1.43;;;5.00;99.90;;;;;;5036606;28;20485;-64
2021/11/04 03:01:59;;;;;;;1.30;1.20;;;4.90;99.90;;;;;;5039425;28;20434;-65
2021/11/04 03:04:26;;;;;;;1.50;1.40;;;4.90;99.90;;;;;;5034065;28;20869;-63
2021/11/04 03:06:52;;;;;;;1.53;1.40;;;4.90;99.90;;;;;;5028594;28;20531;-64
2021/11/04 03:09:19;;;;;;;1.87;1.77;;;4.90;99.90;;;;;;5029885;28;20426;-64
2021/11/04 03:11:45;;;;;;;1.53;1.43;;;4.90;99.90;;;;;;5016445;28;20435;-64
2021/11/04 03:14:11;;;;;;;1.60;1.50;;;4.90;99.90;;;;;;5026619;28;20430;-65
2021/11/04 03:16:40;;;;;;;1.57;1.47;;;4.90;99.90;;;;;;5023541;28;20474;-65
2021/11/04 03:19:09;;;;;;;1.83;1.73;;;4.80;99.90;;;;;;5022312;28;20176;-65
2021/11/04 03:21:37;;;;;;;1.50;1.40;;;4.80;99.90;;;;;;5025694;28;20431;-65
2021/11/04 03:24:04;;;;;;;1.70;1.60;;;4.80;99.90;;;;;;5024949;28;20429;-64
2021/11/04 03:26:31;;;;;;;1.70;1.60;;;4.90;99.90;;;;;;5025202;28;20450;-64
2021/11/04 03:29:01;;;;;;;1.83;1.73;;;4.90;99.90;;;;;;5023942;28;20449;-64
2021/11/04 03:31:27;;;;;;;1.90;1.80;;;4.90;99.90;;;;;;5029349;28;20411;-64
2021/11/04 03:33:54;;;;;;;2.20;2.00;;;4.90;99.90;;;;;;5017907;28;20462;-64
2021/11/04 03:36:21;;;;;;;1.63;1.53;;;4.90;99.90;;;;;;5025474;28;20446;-64
2021/11/04 03:38:48;;;;;;;1.80;1.70;;;4.90;99.90;;;;;;5030275;28;20411;-64
2021/11/04 03:41:16;;;;;;;1.70;1.60;;;4.90;99.90;;;;;;5015313;28;20428;-64
2021/11/04 03:43:44;;;;;;;2.03;1.90;;;4.90;99.90;;;;;;5023389;28;20446;-64
2021/11/04 03:46:09;;;;;;;2.13;1.93;;;4.80;99.90;;;;;;5029895;28;20476;-65
2021/11/04 03:48:43;;;;;;;2.03;1.93;;;4.80;99.90;;;;;;5028603;28;20972;-65
2021/11/04 03:51:10;;;;;;;2.10;1.90;;;4.70;99.90;;;;;;5023035;28;20171;-64
2021/11/04 03:53:36;;;;;;;1.90;1.80;;;4.70;99.90;;;;;;5024682;28;20430;-64
2021/11/04 03:56:03;;;;;;;2.57;2.37;;;4.70;99.90;;;;;;5022942;28;20420;-63
2021/11/04 03:58:29;;;;;;;2.13;2.03;;;4.70;99.90;;;;;;5008687;28;20408;-64
2021/11/04 04:00:59;;;;;;;3.70;2.50;;;4.70;99.90;;;;;;5026958;28;20437;-64
2021/11/04 04:03:25;;;;;;;1.77;1.67;;;4.80;99.90;;;;;;5023779;28;20565;-64
2021/11/04 04:06:03;;;;;;;2.60;2.40;;;4.80;99.90;;;;;;5026444;28;20487;-64
2021/11/04 04:08:31;;;;;;;2.13;1.97;;;4.80;99.90;;;;;;5018202;28;20481;-64
2021/11/04 04:10:57;;;;;;;3.03;2.70;;;4.80;99.90;;;;;;5015675;28;20423;-67
2021/11/04 04:13:23;;;;;;;2.47;2.27;;;4.80;99.90;;;;;;5023634;28;20601;-65
2021/11/04 04:15:49;;;;;;;2.60;2.40;;;4.70;99.90;;;;;;5029089;28;20936;-64
2021/11/04 04:18:15;;;;;;;2.63;2.43;;;4.70;99.90;;;;;;5021657;28;20208;-65
2021/11/04 04:20:41;;;;;;;2.93;2.60;;;4.70;99.90;;;;;;5015140;28;20712;-64
2021/11/04 04:23:06;;;;;;;3.70;3.27;;;4.70;99.90;;;;;;5029657;28;20437;-64
2021/11/04 04:25:32;;;;;;;3.70;3.40;;;4.60;99.90;;;;;;5024304;28;20175;-65
2021/11/04 04:27:58;;;;;;;4.00;3.60;;;4.60;99.90;;;;;;5026096;28;20203;-64
2021/11/04 04:30:24;;;;;;;3.43;3.13;;;4.70;99.90;;;;;;5018340;28;20269;-64
2021/11/04 04:32:50;;;;;;;4.03;3.57;;;4.60;99.90;;;;;;5026404;28;20426;-64
2021/11/04 04:35:16;;;;;;;3.60;3.23;;;4.60;99.90;;;;;;5021606;28;20509;-64
2021/11/04 04:37:42;;;;;;;3.40;3.10;;;4.60;99.90;;;;;;5025384;28;20198;-64
2021/11/04 04:40:08;;;;;;;3.13;2.83;;;4.70;99.90;;;;;;5030033;28;20430;-64
2021/11/04 04:42:35;;;;;;;3.40;3.00;;;4.60;99.90;;;;;;5025733;28;20191;-64
2021/11/04 04:45:01;;;;;;;4.80;3.70;;;4.60;99.90;;;;;;5032301;28;20829;-63
2021/11/04 04:47:27;;;;;;;3.63;3.33;;;4.60;99.90;;;;;;5030747;28;20465;-63
2021/11/04 04:49:58;;;;;;;3.33;3.10;;;4.60;99.90;;;;;;5021463;28;20184;-64
2021/11/04 04:52:30;;;;;;;3.77;3.07;;;4.60;99.90;;;;;;5020532;28;20176;-64
2021/11/04 04:54:56;;;;;;;3.47;3.17;;;4.60;99.90;;;;;;5028896;28;21125;-64
2021/11/04 04:57:23;;;;;;;3.20;2.93;;;4.60;99.90;;;;;;5024783;28;20527;-64
2021/11/04 04:59:57;;;;;;;4.30;3.33;;;4.50;99.90;;;;;;5030346;28;20472;-65
2021/11/04 05:02:24;;;;;;;3.10;2.80;;;4.50;99.90;;;;;;5017778;28;20529;-64
2021/11/04 05:04:51;;;;;;;3.50;3.20;;;4.50;99.90;;;;;;5027525;28;20488;-65
2021/11/04 05:07:17;;;;;;;3.83;3.07;;;4.50;99.90;;;;;;5030472;28;20476;-64
2021/11/04 05:09:43;;;;;;;4.20;3.57;;;4.50;99.90;;;;;;5026503;28;20481;-65
2021/11/04 05:12:09;;;;;;;3.00;2.70;;;4.50;99.90;;;;;;5030582;28;20895;-64
2021/11/04 05:14:35;;;;;;;2.93;2.73;;;4.50;99.90;;;;;;5025555;28;20178;-64
2021/11/04 05:17:01;;;;;;;3.20;2.70;;;4.50;99.90;;;;;;5030936;28;20438;-65
2021/11/04 05:19:26;;;;;;;3.20;3.00;;;4.50;99.90;;;;;;5029161;28;20178;-64
2021/11/04 05:21:52;;;;;;;3.10;2.80;;;4.50;99.90;;;;;;5024373;28;20821;-65
2021/11/04 05:24:18;;;;;;;2.80;2.60;;;4.50;99.90;;;;;;5025294;28;20198;-64
2021/11/04 05:26:44;;;;;;;3.20;2.90;;;4.50;99.90;;;;;;5025862;28;20200;-64
2021/11/04 05:29:10;;;;;;;2.80;2.60;;;4.50;99.90;;;;;;5018065;28;20164;-64
2021/11/04 05:31:36;;;;;;;3.10;2.47;;;4.50;99.90;;;;;;5017434;28;21069;-63
2021/11/04 05:34:02;;;;;;;2.63;2.43;;;4.50;99.90;;;;;;5026045;28;20177;-64
2021/11/04 05:36:27;;;;;;;3.10;2.80;;;4.50;99.90;;;;;;5027293;28;20188;-64
2021/11/04 05:38:54;;;;;;;2.83;2.63;;;4.50;99.90;;;;;;5029316;28;20418;-64
2021/11/04 05:41:20;;;;;;;2.80;2.60;;;4.50;99.90;;;;;;5029629;28;20771;-63
2021/11/04 05:43:46;;;;;;;2.90;2.60;;;4.50;99.90;;;;;;5027601;28;20430;-64
2021/11/04 05:46:12;;;;;;;2.97;2.67;;;4.50;99.90;;;;;;5024281;28;20176;-64
2021/11/04 05:48:38;;;;;;;8.00;2.80;;;4.50;99.90;;;;;;5030287;28;20454;-63
2021/11/04 05:51:04;;;;;;;3.00;2.70;;;4.50;99.90;;;;;;5024978;28;21280;-62
2021/11/04 05:53:30;;;;;;;3.00;2.70;;;4.50;99.90;;;;;;5031341;28;20250;-63
2021/11/04 05:55:55;;;;;;;2.77;2.57;;;4.50;99.90;;;;;;5025113;28;20599;-64
2021/11/04 05:58:21;;;;;;;2.73;2.53;;;4.50;99.90;;;;;;5031714;28;20183;-64
2021/11/04 06:00:47;;;;;;;2.97;2.67;;;4.50;99.90;;;;;;5021465;28;20267;-63
2021/11/04 06:03:13;;;;;;;2.77;2.57;;;4.50;99.90;;;;;;5030325;28;20226;-64
2021/11/04 06:05:40;;;;;;;2.83;2.63;;;4.50;99.90;;;;;;5024775;28;20884;-63
2021/11/04 06:08:06;;;;;;;2.63;2.43;;;4.50;99.90;;;;;;5028550;28;20469;-64
2021/11/04 06:10:32;;;;;;;3.50;2.90;;;4.50;99.90;;;;;;5020115;28;20502;-63
2021/11/04 06:12:58;;;;;;;2.90;2.63;;;4.50;99.90;;;;;;5018235;28;20794;-64
2021/11/04 06:15:23;;;;;;;3.03;2.70;;;4.50;99.90;;;;;;5028626;28;20207;-64
2021/11/04 06:17:49;;;;;;;2.93;2.60;;;4.50;99.90;;;;;;5022497;28;20435;-63
2021/11/04 06:20:15;;;;;;;2.47;2.30;;;4.50;99.90;;;;;;5022620;28;20255;-64
2021/11/04 06:22:41;;;;;;;2.70;2.47;;;4.50;99.90;;;;;;5022500;28;20207;-64
2021/11/04 06:25:08;;;;;;;3.53;2.37;;;4.50;99.90;;;;;;5018737;28;20235;-64
2021/11/04 06:27:34;;;;;;;2.57;2.37;;;4.50;99.90;;;;;;5025519;28;20464;-64
2021/11/04 06:30:01;;;;;;;2.53;2.33;;;4.50;99.90;;;;;;5017811;28;20902;-64
2021/11/04 06:32:27;;;;;;;2.93;2.73;;;4.50;99.90;;;;;;5020349;28;20426;-64
2021/11/04 06:34:53;;;;;;;2.47;2.27;;;4.50;99.90;;;;;;5025752;28;20430;-63
2021/11/04 06:37:18;;;;;;;2.20;2.10;;;4.50;99.90;;;;;;5024014;28;20215;-64
2021/11/04 06:39:44;;;;;;;1.90;1.80;;;4.50;99.90;;;;;;5024088;28;20179;-64
2021/11/04 06:42:10;;;;;;;2.00;1.90;;;4.50;99.90;;;;;;5023156;28;20181;-64
2021/11/04 06:44:36;;;;;;;2.23;2.13;;;4.60;99.90;;;;;;5031214;28;20785;-63
2021/11/04 06:47:02;;;;;;;1.90;1.80;;;4.50;99.90;;;;;;5013114;28;20594;-64
2021/11/04 06:49:33;;;;;;;1.90;1.80;;;4.50;99.90;;;;;;5019985;28;20423;-63
2021/11/04 06:51:59;;;;;;;2.00;1.90;;;4.60;99.90;;;;;;5027136;28;20509;-64
2021/11/04 06:54:27;;;;;;;2.07;1.97;;;4.60;99.90;;;;;;5027188;28;20921;-64
2021/11/04 06:56:54;;;;;;;2.27;2.10;;;4.60;99.90;;;;;;5030894;28;20512;-64
2021/11/04 06:59:22;;;;;;;1.80;1.70;;;4.60;99.90;;;;;;5027051;28;20418;-64
2021/11/04 07:02:00;;;;;;;2.40;2.30;;;4.60;99.90;;;;;;5028045;28;20928;-64
2021/11/04 07:04:37;;;;;;;2.57;2.20;;;4.60;99.90;;;;;;5021294;28;20418;-64
2021/11/04 07:07:06;;;;;;;2.27;2.07;;;4.60;99.90;;;;;;5023461;28;20477;-62
2021/11/04 07:09:38;;;;;;;2.10;1.90;;;4.60;99.90;;;;;;5027026;28;20509;-62
2021/11/04 07:12:07;;;;;;;2.80;1.80;;;4.70;99.90;;;;;;5027166;28;20425;-64
2021/11/04 07:14:34;;;;;;;2.00;1.90;;;4.70;99.90;;;;;;5020772;28;20415;-63
2021/11/04 07:17:02;;;;;;;1.93;1.83;;;4.70;99.90;;;;;;5018022;28;20481;-63
2021/11/04 07:19:28;;;;;;;1.83;1.73;;;4.70;99.90;;;;;;5019820;28;20418;-63
2021/11/04 07:22:03;;;;;;;1.80;1.70;;;4.70;99.90;;;;;;5022872;28;20526;-63
2021/11/04 07:24:37;;;;;;;2.37;1.90;;;4.70;99.90;;;;;;5019608;28;20436;-63
2021/11/04 07:27:36;;;;;;;2.73;2.40;;;4.70;99.90;;;;;;5018287;28;20459;-63
2021/11/04 07:30:06;;;;;;;1.80;1.70;;;4.70;99.90;;;;;;5008177;28;20419;-64
2021/11/04 07:32:32;;;;;;;2.00;1.90;;;4.80;99.90;;;;;;5012059;28;20891;-64
2021/11/04 07:34:58;;;;;;;1.70;1.60;;;4.80;99.90;;;;;;5017969;28;20419;-63
2021/11/04 07:37:32;;;;;;;1.97;1.77;;;4.80;99.90;;;;;;5028463;28;20434;-64
2021/11/04 07:39:58;;;;;;;1.83;1.73;;;4.80;99.90;;;;;;5021391;28;20524;-63
2021/11/04 07:42:24;;;;;;;1.90;1.80;;;4.90;99.90;;;;;;5023262;28;20975;-64
2021/11/04 07:44:50;;;;;;;1.60;1.50;;;4.90;99.90;;;;;;5029021;28;20407;-64
2021/11/04 07:47:18;;;;;;;2.17;1.87;;;4.90;99.90;;;;;;5024354;28;20458;-64
2021/11/04 07:49:44;;;;;;;5.13;2.07;;;4.90;99.90;;;;;;5017725;28;20165;-64
2021/11/04 07:52:09;;;;;;;2.03;1.93;;;4.90;99.90;;;;;;5026102;28;20422;-64
2021/11/04 07:54:35;;;;;;;2.00;1.90;;;4.90;99.90;;;;;;5023274;28;20168;-63
2021/11/04 07:57:02;;;;;;;2.17;2.00;;;4.90;99.90;;;;;;5027392;28;20584;-64
2021/11/04 07:59:31;;;;;;;1.80;1.70;;;4.90;99.90;;;;;;5026110;28;20418;-64
2021/11/04 08:02:00;;;;;;;1.80;1.70;;;4.90;99.90;;;;;;5024255;28;20946;-63
2021/11/04 08:04:26;;;;;;;3.63;1.80;;;4.90;99.90;;;;;;5025605;28;20512;-64
2021/11/04 08:06:52;;;;;;;1.70;1.60;;;4.90;99.90;;;;;;5026678;28;20596;-62
2021/11/04 08:09:19;;;;;;;2.07;1.80;;;4.90;99.90;;;;;;5015928;28;20420;-64
2021/11/04 08:11:45;;;;;;;2.07;1.90;;;5.00;99.90;;;;;;5015378;28;20998;-65
2021/11/04 08:14:11;;;;;;;1.80;1.70;;;5.00;99.90;;;;;;5023044;28;20433;-63
2021/11/04 08:16:36;;;;;;;2.17;2.03;;;5.00;99.90;;;;;;5027487;28;20433;-64
2021/11/04 08:19:02;;;;;;;1.70;1.60;;;5.00;99.90;;;;;;5021747;28;20243;-65
2021/11/04 08:21:28;;;;;;;1.63;1.53;;;4.90;99.90;;;;;;5015414;28;20187;-64
2021/11/04 08:23:54;;;;;;;1.50;1.40;;;4.90;99.90;;;;;;5021800;28;20278;-65
2021/11/04 08:26:20;;;;;;;1.67;1.57;;;4.90;99.90;;;;;;5025537;28;20199;-64
2021/11/04 08:28:45;;;;;;;2.00;1.70;;;4.90;99.90;;;;;;5025812;28;20245;-65
2021/11/04 08:31:11;;;;;;;1.70;1.60;;;4.90;99.90;;;;;;5027738;28;20179;-64
2021/11/04 08:33:37;;;;;;;1.80;1.70;;;4.90;99.90;;;;;;5019915;28;20238;-65
2021/11/04 08:36:03;;;;;;;1.90;1.80;;;4.90;99.90;;;;;;5022594;28;20168;-64
2021/11/04 08:38:29;;;;;;;1.60;1.50;;;4.90;99.90;;;;;;5020037;28;20422;-65
2021/11/04 08:40:55;;;;;;;1.70;1.60;;;4.90;99.90;;;;;;5017012;28;20655;-65
2021/11/04 08:43:20;;;;;;;1.50;1.40;;;4.90;99.90;;;;;;5026245;28;20418;-63
2021/11/04 08:45:46;;;;;;;2.00;1.83;;;4.90;99.90;;;;;;5021108;28;20619;-65
2021/11/04 08:48:14;;;;;;;1.50;1.40;;;4.90;99.90;;;;;;5016765;28;20188;-64
2021/11/04 08:50:41;;;;;;;1.50;1.40;;;5.00;99.90;;;;;;5025431;28;20813;-65
2021/11/04 08:53:07;;;;;;;3.00;1.50;;;5.00;99.90;;;;;;5022136;28;20415;-65
2021/11/04 08:55:33;;;;;;;2.20;2.00;;;4.90;99.90;;;;;;5017322;28;20450;-65
2021/11/04 08:57:59;;;;;;;1.57;1.47;;;5.00;99.90;;;;;;5022202;28;20486;-65
2021/11/04 09:00:25;;;;;;;1.50;1.40;;;5.00;99.90;;;;;;5014604;28;20458;-65
2021/11/04 09:02:51;;;;;;;1.70;1.60;;;5.00;99.90;;;;;;5023702;28;20427;-65
2021/11/04 09:05:17;;;;;;;2.10;1.63;;;5.10;99.90;;;;;;5013225;28;20682;-64
2021/11/04 09:07:44;;;;;;;1.77;1.67;;;5.10;99.90;;;;;;5012416;28;20212;-65
2021/11/04 09:10:11;;;;;;;1.80;1.50;;;5.20;99.90;;;;;;5019163;28;20454;-65
2021/11/04 09:12:37;;;;;;;2.40;1.63;;;5.20;99.90;;;;;;5021751;28;21064;-65
2021/11/04 09:15:04;;;;;;;1.63;1.53;;;5.20;99.90;;;;;;5020429;28;20440;-65
2021/11/04 09:17:30;;;;;;;1.30;1.20;;;5.20;99.90;;;;;;5026356;28;20881;-64
2021/11/04 09:19:56;;;;;;;1.80;1.70;;;5.20;99.90;;;;;;5025813;28;20464;-65
2021/11/04 09:22:22;;;;;;;1.40;1.30;;;5.20;99.90;;;;;;5024354;28;20186;-65
2021/11/04 09:24:47;;;;;;;2.60;1.40;;;5.20;99.90;;;;;;5028518;28;20426;-64
2021/11/04 09:27:14;;;;;;;1.97;1.77;;;5.30;99.90;;;;;;5027124;28;20514;-66
2021/11/04 09:29:41;;;;;;;2.17;1.97;;;5.30;99.90;;;;;;5029912;28;20463;-66
2021/11/04 09:32:08;;;;;;;1.70;1.60;;;5.40;99.90;;;;;;5028989;28;20426;-65
2021/11/04 09:34:34;;;;;;;1.50;1.40;;;5.40;99.90;;;;;;5032749;28;20763;-65
2021/11/04 09:37:00;;;;;;;2.07;1.80;;;5.40;99.90;;;;;;5027378;28;20485;-65
2021/11/04 09:39:26;;;;;;;1.70;1.50;;;5.50;99.90;;;;;;5026382;28;20438;-65
2021/11/04 09:41:52;;;;;;;1.60;1.50;;;5.50;99.90;;;;;;5027449;28;20434;-65
2021/11/04 09:44:21;;;;;;;1.70;1.60;;;5.60;99.90;;;;;;5030617;28;20164;-65
2021/11/04 09:46:46;;;;;;;1.60;1.50;;;5.60;99.90;;;;;;5026057;28;20452;-65
2021/11/04 09:49:12;;;;;;;1.50;1.40;;;5.60;99.90;;;;;;5025233;28;20430;-64
2021/11/04 09:51:39;;;;;;;1.67;1.57;;;5.70;99.90;;;;;;5025719;28;20244;-65
2021/11/04 09:54:05;;;;;;;1.87;1.77;;;5.70;99.90;;;;;;5024798;28;20418;-65
2021/11/04 09:56:33;;;;;;;1.70;1.60;;;5.70;99.90;;;;;;5030213;28;20439;-65
2021/11/04 09:58:59;;;;;;;1.70;1.60;;;5.80;99.90;;;;;;5030788;28;20614;-65
2021/11/04 10:01:27;;;;;;;2.23;2.03;;;5.80;99.90;;;;;;5028860;28;20510;-65
2021/11/04 10:03:57;;;;;;;2.43;2.20;;;5.80;99.90;;;;;;5021366;28;20478;-65
2021/11/04 10:06:34;;;;;;;1.67;1.57;;;5.90;99.90;;;;;;5028121;28;20524;-65
2021/11/04 10:09:09;;;;;;;2.50;1.70;;;5.90;99.90;;;;;;5029776;28;20485;-65
2021/11/04 10:11:42;;;;;;;1.80;1.70;;;6.00;99.90;;;;;;5020393;28;20413;-65
2021/11/04 10:14:11;;;;;;;3.10;1.97;;;6.00;99.90;;;;;;5027131;28;20426;-65
2021/11/04 10:16:37;;;;;;;1.67;1.57;;;6.00;99.90;;;;;;5028710;28;20836;-65
2021/11/04 10:19:08;;;;;;;1.80;1.70;;;6.00;99.90;;;;;;5030805;28;20422;-65
2021/11/04 10:21:36;;;;;;;1.77;1.67;;;6.10;99.90;;;;;;5020154;28;20414;-65
2021/11/04 10:24:04;;;;;;;1.43;1.33;;;6.10;99.90;;;;;;5023332;28;20422;-65
2021/11/04 10:26:38;;;;;;;2.00;1.43;;;6.10;99.90;;;;;;5019765;28;20454;-65
2021/11/04 10:29:08;;;;;;;1.40;1.40;;;6.10;99.90;;;;;;5027987;28;20441;-64
2021/11/04 10:31:48;;;;;;;2.00;1.43;;;6.00;99.90;;;;;;5021816;28;20426;-64
2021/11/04 10:34:24;;;;;;;1.70;1.60;;;6.10;99.90;;;;;;5023833;28;20433;-65
2021/11/04 10:36:50;;;;;;;1.27;1.23;;;6.10;99.90;;;;;;5024088;28;20445;-65
2021/11/04 10:39:16;;;;;;;1.70;1.60;;;6.10;99.90;;;;;;5016891;28;20419;-65
2021/11/04 10:41:44;;;;;;;3.27;1.40;;;6.10;99.90;;;;;;5028124;28;20170;-65
2021/11/04 10:44:12;;;;;;;1.70;1.60;;;6.20;99.90;;;;;;5027861;28;20251;-66
2021/11/04 10:46:52;;;;;;;1.60;1.50;;;6.20;99.90;;;;;;5022548;28;21034;-65
2021/11/04 10:49:19;;;;;;;2.17;1.97;;;6.10;99.90;;;;;;5024561;28;20956;-66
2021/11/04 10:51:58;;;;;;;2.70;2.33;;;6.10;99.90;;;;;;5025236;28;20947;-66
2021/11/04 10:54:24;;;;;;;1.73;1.63;;;6.10;99.90;;;;;;5028229;28;20426;-65
2021/11/04 10:56:52;;;;;;;1.70;1.60;;;6.20;99.90;;;;;;5025467;28;20508;-66
2021/11/04 10:59:20;;;;;;;2.10;2.00;;;6.20;99.90;;;;;;5022345;28;20937;-65
2021/11/04 11:01:51;;;;;;;1.87;1.77;;;6.20;99.90;;;;;;5029604;28;20986;-66
2021/11/04 11:04:21;;;;;;;2.20;2.00;;;6.30;99.90;;;;;;5026537;28;20784;-66
2021/11/04 11:06:50;;;;;;;2.00;1.90;;;6.20;99.90;;;;;;5018854;28;20557;-65
2021/11/04 11:09:18;;;;;;;2.13;2.03;;;6.30;99.90;;;;;;5020519;28;20422;-65
2021/11/04 11:11:49;;;;;;;2.30;2.10;;;6.30;99.90;;;;;;5022171;28;20422;-65
2021/11/04 11:14:16;;;;;;;1.80;1.70;;;6.30;99.90;;;;;;5025086;28;20493;-65
2021/11/04 11:16:49;;;;;;;2.27;2.17;;;6.30;99.90;;;;;;5021745;28;20870;-65
2021/11/04 11:19:23;;;;;;;2.63;2.30;;;6.30;99.90;;;;;;5029769;28;20399;-64
2021/11/04 11:21:51;;;;;;;2.90;2.70;;;6.30;99.90;;;;;;5026293;28;20956;-65
2021/11/04 11:24:32;;;;;;;2.60;2.40;;;6.40;99.90;;;;;;5019734;28;20414;-64
2021/11/04 11:27:03;;;;;;;2.90;2.50;;;6.40;99.90;;;;;;5019949;28;20934;-65
2021/11/04 11:29:34;;;;;;;2.60;2.40;;;6.40;99.90;;;;;;5019671;28;20554;-65
2021/11/04 11:31:59;;;;;;;2.17;2.07;;;6.40;99.90;;;;;;5019130;28;20931;-64
2021/11/04 11:34:32;;;;;;;2.20;2.10;;;6.50;99.90;;;;;;5026326;28;20422;-65
2021/11/04 11:37:13;;;;;;;2.40;2.20;;;6.50;99.90;;;;;;5014085;28;20193;-65
2021/11/04 11:39:44;;;;;;;3.57;2.97;;;6.50;99.90;;;;;;5020681;28;20422;-65
2021/11/04 11:42:15;;;;;;;3.00;1.90;;;6.50;99.90;;;;;;5025265;28;20440;-64
2021/11/04 11:45:20;;;;;;;2.30;2.10;;;6.60;99.90;;;;;;5028717;28;20426;-65
2021/11/04 11:47:47;;;;;;;2.20;2.10;;;6.60;99.90;;;;;;4997489;28;20553;-66
2021/11/04 11:50:18;;;;;;;2.77;2.53;;;6.70;99.90;;;;;;5017886;28;20426;-65
2021/11/04 11:52:55;;;;;;;2.90;2.40;;;6.70;99.80;;;;;;5026984;28;20414;-64
2021/11/04 11:55:42;;;;;;;2.60;2.10;;;6.70;99.40;;;;;;5022429;28;20423;-65
2021/11/04 11:58:21;;;;;;;2.90;2.43;;;6.70;99.60;;;;;;5014878;28;20510;-64
2021/11/04 12:00:54;;;;;;;2.83;2.63;;;6.80;99.50;;;;;;5025830;28;20402;-65
2021/11/04 12:03:32;;;;;;;2.70;2.50;;;6.80;99.50;;;;;;5023722;28;20461;-66
2021/11/04 12:06:27;;;;;;;3.07;2.40;;;6.70;98.90;;;;;;5024914;28;20476;-65
2021/11/04 12:09:00;;;;;;;4.47;3.40;;;6.70;99.40;;;;;;5023610;28;20458;-65
2021/11/04 12:11:35;;;;;;;3.17;2.87;;;6.70;98.50;;;;;;5023105;28;20944;-65
2021/11/04 12:14:19;;;;;;;3.07;2.77;;;6.70;99.10;;;;;;5029611;28;20448;-65
2021/11/04 12:17:00;;;;;;;3.30;2.57;;;6.80;99.50;;;;;;5022837;28;20462;-66
2021/11/04 12:19:36;;;;;;;4.37;3.50;;;6.80;99.20;;;;;;5029475;28;20426;-66
2021/11/04 12:22:02;;;;;;;3.43;3.03;;;6.80;98.90;;;;;;5023486;28;20419;-65
2021/11/04 12:24:28;;;;;;;3.33;3.03;;;6.80;98.50;;;;;;5029075;28;22207;-65
2021/11/04 12:26:54;;;;;;;3.40;3.10;;;6.80;99.00;;;;;;5013304;28;20438;-66
2021/11/04 12:29:24;;;;;;;2.70;2.50;;;6.90;99.00;;;;;;5026936;28;20176;-64
2021/11/04 12:31:50;;;;;;;3.70;3.27;;;6.90;99.50;;;;;;5026870;28;20218;-65
2021/11/04 12:34:26;;;;;;;3.50;3.20;;;6.90;98.30;;;;;;5029142;28;20427;-65
2021/11/04 12:36:55;;;;;;;3.47;3.17;;;6.80;98.80;;;;;;5018989;28;20183;-64
2021/11/04 12:39:26;;;;;;;3.50;3.20;;;6.80;98.90;;;;;;5020285;28;20426;-65
2021/11/04 12:41:55;;;;;;;3.07;2.87;;;6.80;98.80;;;;;;5020338;28;20975;-65
2021/11/04 12:44:22;;;;;;;3.60;3.30;;;6.70;99.50;;;;;;5026492;28;20423;-65
2021/11/04 12:46:48;;;;;;;4.00;3.60;;;6.70;99.90;;;;;;5029311;28;20864;-65
2021/11/04 12:49:15;;;;;;;4.00;3.50;;;6.70;99.90;;;;;;5024885;28;20494;-64
2021/11/04 12:51:41;;;;;;;3.50;3.20;;;6.70;99.90;;;;;;5018144;28;20168;-66
2021/11/04 12:54:08;;;;;;;4.27;3.87;;;6.70;99.90;;;;;;5025976;28;20423;-64
2021/11/04 12:56:42;;;;;;;4.10;3.70;;;6.60;99.90;;;;;;5022284;28;20458;-65
2021/11/04 12:59:26;;;;;;;4.60;4.00;;;6.70;99.90;;;;;;5025026;28;20427;-65
2021/11/04 13:02:13;;;;;;;4.03;3.60;;;6.70;99.90;;;;;;5031976;28;20422;-65
2021/11/04 13:04:50;;;;;;;4.70;4.10;;;6.70;99.90;;;;;;5026311;28;20444;-65